[ ตารางข้อมูล ] [ Min-Max ] [ วันนี้2 ] [ วันนี้4 ] [ เทียบ-A 3วัน ] [ เทียบ-B 4วัน ]   

วันนี้4   [ ◀ ช่วงเก่ากว่า ] [ ช่วงที่ 9 ] [ ช่วงใหม่กว่า ▶ ] [ ล่าสุด ]    [ 3 ชั่วโมง ] [ 6 ชั่วโมง ] [ 12 ชั่วโมง ] [ 24 ชั่วโมง ]   วันนี้4

อุณภูมิในตู้ Knockdown4529  ราย 24 ชั่วโมง  ที่วัดได้ ในช่วงวันเวลา 22/08/2026 (11:52) ถึง 23/08/2026 (11:52) 
ความชื้นในตู้ Knockdown4529  ราย 24 ชั่วโมง  ที่วัดได้ ในช่วงวันเวลา 22/08/2026 (11:52) ถึง 23/08/2026 (11:52) 
การใช้ไฟฟ้าในตู้ Knockdown4529  ราย 24 ชั่วโมง  ที่วัดได้ ในช่วงวันเวลา 22/08/2026 (11:52) ถึง 23/08/2026 (11:52) 

  DS18B20SHTC3PZEM-004TWiFi 
IDDate d/m/Y & Timedata1
สูง
data2
ต่ำ
data3
นอก
temp
pcb
hum
pcb
VoltAmpWattrssiTime
 15252  23/08/2026 11:49:14  34.2  32.2  35.2  35.0  61.4  229.9  0.04  4.6  -79  11:49 
 15251  23/08/2026 11:44:31  34.1  32.2  35.0  34.8  61.3  230.9  0.04  4.6  -80  11:44 
 15250  23/08/2026 11:39:45  34.1  32.2  34.4  34.8  61.5  230.9  0.04  4.6  -76  11:39 
 15249  23/08/2026 11:35:02  34.0  32.1  34.2  34.8  61.4  230.7  0.04  4.6  -79  11:35 
 15248  23/08/2026 11:30:18  33.9  32.1  34.5  34.8  61.4  231.2  0.04  4.6  -79  11:30 
 15247  23/08/2026 11:25:35  33.9  32.0  34.2  34.6  61.2  231.6  0.04  4.6  -77  11:25 
 15246  23/08/2026 11:20:49  33.8  31.9  34.5  34.6  61.3  231.0  0.04  4.6  -78  11:20 
 15245  23/08/2026 11:16:06  33.7  31.9  34.2  34.4  61.3  229.1  0.04  4.6  -72  11:16 
 15244  23/08/2026 11:11:22  33.6  31.8  34.2  34.3  61.4  231.5  0.04  4.6  -77  11:11 
 15243  23/08/2026 11:06:38  33.5  31.8  34.3  34.3  61.5  230.6  0.04  4.6  -78  11:06 
 15242  23/08/2026 11:01:55  33.4  31.7  34.0  34.2  61.4  231.0  0.04  4.6  -76  11:01 
 15241  23/08/2026 10:57:11  33.4  31.6  33.7  34.1  61.3  230.9  0.04  4.6  -77  10:57 
 15240  23/08/2026 10:52:28  33.3  31.6  33.7  34.1  61.5  231.1  0.04  4.6  -77  10:52 
 15239  23/08/2026 10:47:45  33.2  31.5  33.7  34.1  61.7  230.8  0.04  4.6  -75  10:47 
 15238  23/08/2026 10:43:01  33.1  31.4  33.9  34.1  61.7  231.1  0.04  4.6  -74  10:43 
 15237  23/08/2026 10:38:18  33.1  31.4  33.7  34.0  61.8  231.9  0.04  4.6  -79  10:38 
 15236  23/08/2026 10:33:35  32.9  31.3  33.6  33.9  61.9  232.2  0.04  4.6  -78  10:33 
 15235  23/08/2026 10:28:51  32.8  31.2  33.4  33.6  62.1  231.3  0.04  4.6  -78  10:28 
 15234  23/08/2026 10:24:08  32.8  31.2  33.6  33.6  62.2  232.0  0.04  4.6  -78  10:24 
 15233  23/08/2026 10:19:22  32.7  31.1  33.2  33.5  62.5  231.5  0.04  4.6  -77  10:19 
 15232  23/08/2026 10:14:39  32.6  31.0  33.1  33.5  62.6  231.7  0.04  4.6  -79  10:14 
 15231  23/08/2026 10:09:55  32.4  30.9  33.0  33.4  62.8  231.7  0.04  4.6  -79  10:09 
 15230  23/08/2026 10:05:12  32.3  30.9  32.7  33.1  62.7  231.9  0.04  4.6  -79  10:05 
 15229  23/08/2026 10:00:29  32.2  30.8  32.7  33.1  62.9  231.8  0.04  4.6  -79  10:00 

Data every 5 minute.


ใช้เวลาประมวลผล 0.02924 วินาที